LFPG 181700Z 35008KT 310V010 9999 FEW060TCU BKN093 28/14 Q1013 TEMPO 4000 SHRA

ElémentsDécodage
LFPG Station météo située sur l'aérodrome de PARIS Charles-de-Gaulle
181700Z émis le 18 du mois à 17h00 UTC
35008KT vent du 350°, 08 noeuds
310V010 vent de direction variable entre 310° et 010°
9999 visibilité horizontale supérieure à 10 Km
FEW060TCU nuages rares (1/8 à 2/8) à 6000 pieds
 présence de cumulus congestus
BKN093 nuages morcelés (5/8 à 7/8) à 9300 pieds
28/14 température 28°C, point de rosée 14°C
 soit une humidité relative de 42%
Q1013 la pression au niveau de la mer (QNH) est de 1013 hPa
TEMPO fluctuation temporaire prévue
4000 visibilité horizontale de 4000 mètres
SHRA averse(s) de pluie